Terminal Aerodrome Forecast
Issued by NWS

Home | Current Version | Previous Version | Text Only | Print | Product List | Glossary On
Versions: 1 2 3 4 5 6 7 8 9 10 11 12 13 14 15 16 17 18 19 20 21 22 23 24 25 26 27 28
000
FTUS44 KOUN 302320
TAFPNC
TAF
KPNC 302320Z 3100/3124 06010KT 5SM -RA BR BKN015
      TEMPO 3100/3104 4SM -RA BR OVC008
     FM310400 01008KT P6SM SCT008 OVC015
      TEMPO 3105/3109 OVC007
     FM311200 35009KT P6SM BKN035=

USA.gov is the U.S. government's official web portal to all federal, state and local government web resources and services.